LIA560 TGPY-TBPB
Flight info
| Callsign | LIA560 |
|---|---|
| Flight time | N/A |
| Altitude | 19000 |
| Route | DCT GND A561 BGI DCT |
| Aircraft | E145/M-SDFGIRW/S |
Departure
| Time | 2026-04-20 20:50 |
|---|---|
| Airport | Maurice Bishop International Airport (TGPY) |
Arrival
| Time | N/A |
|---|---|
| Airport | Grantley Adams International Airport (TBPB) |
| Time | Latitude | Longitude | Altitude | Speed | Heading |
|---|---|---|---|---|---|
| 2026-04-20 20:35 | 12.00611 | -61.78479 | 49 ft | 0 kts | 359° |
| 2026-04-20 20:43 | 12.00601 | -61.78478 | 49 ft | 2 kts | 343° |
| 2026-04-20 20:44 | 12.00586 | -61.78468 | 49 ft | 3 kts | 307° |
| 2026-04-20 20:44 | 12.00580 | -61.78449 | 49 ft | 3 kts | 271° |
| 2026-04-20 20:44 | 12.00580 | -61.78441 | 49 ft | 0 kts | 269° |
| 2026-04-20 20:44 | 12.00576 | -61.78448 | 49 ft | 3 kts | 234° |
| 2026-04-20 20:45 | 12.00552 | -61.78486 | 49 ft | 8 kts | 253° |
| 2026-04-20 20:45 | 12.00538 | -61.78555 | 49 ft | 7 kts | 256° |
| 2026-04-20 20:45 | 12.00507 | -61.78586 | 49 ft | 5 kts | 195° |
| 2026-04-20 20:45 | 12.00408 | -61.78589 | 49 ft | 14 kts | 185° |
| 2026-04-20 20:46 | 12.00369 | -61.78659 | 49 ft | 16 kts | 272° |
| 2026-04-20 20:46 | 12.00371 | -61.78773 | 49 ft | 17 kts | 270° |
| 2026-04-20 20:46 | 12.00372 | -61.78896 | 49 ft | 18 kts | 270° |
| 2026-04-20 20:46 | 12.00372 | -61.79029 | 49 ft | 19 kts | 269° |
| 2026-04-20 20:47 | 12.00370 | -61.79171 | 49 ft | 21 kts | 269° |
| 2026-04-20 20:47 | 12.00367 | -61.79320 | 49 ft | 21 kts | 274° |
| 2026-04-20 20:47 | 12.00373 | -61.79492 | 49 ft | 28 kts | 270° |
| 2026-04-20 20:47 | 12.00373 | -61.79679 | 49 ft | 25 kts | 271° |
| 2026-04-20 20:48 | 12.00420 | -61.79812 | 49 ft | 15 kts | 285° |
| 2026-04-20 20:48 | 12.00406 | -61.79858 | 49 ft | 7 kts | 196° |
| 2026-04-20 20:48 | 12.00380 | -61.79852 | 49 ft | 2 kts | 131° |
| 2026-04-20 20:48 | 12.00376 | -61.79834 | 49 ft | 1 kts | 93° |
| 2026-04-20 20:49 | 12.00376 | -61.79832 | 49 ft | 0 kts | 93° |
| 2026-04-20 20:49 | 12.00372 | -61.79560 | 49 ft | 100 kts | 89° |
| 2026-04-20 20:49 | 12.00370 | -61.78498 | 408 ft | 180 kts | 93° |
| 2026-04-20 20:50 | 12.00311 | -61.77157 | 1277 ft | 185 kts | 94° |
| 2026-04-20 20:50 | 12.00284 | -61.75827 | 1899 ft | 195 kts | 91° |
| 2026-04-20 20:50 | 12.00266 | -61.74361 | 2550 ft | 215 kts | 91° |
| 2026-04-20 20:50 | 12.00380 | -61.72785 | 3162 ft | 230 kts | 78° |
| 2026-04-20 20:51 | 12.00983 | -61.71233 | 3841 ft | 241 kts | 66° |
| 2026-04-20 20:51 | 12.01777 | -61.69711 | 4477 ft | 245 kts | 62° |
| 2026-04-20 20:51 | 12.02640 | -61.68184 | 5103 ft | 249 kts | 61° |
| 2026-04-20 20:51 | 12.03531 | -61.66646 | 5735 ft | 253 kts | 60° |
| 2026-04-20 20:52 | 12.04428 | -61.65109 | 6354 ft | 257 kts | 60° |
| 2026-04-20 20:52 | 12.05348 | -61.63534 | 6982 ft | 260 kts | 60° |
| 2026-04-20 20:52 | 12.06282 | -61.61936 | 7610 ft | 263 kts | 60° |
| 2026-04-20 20:52 | 12.07226 | -61.60314 | 8238 ft | 267 kts | 60° |
| 2026-04-20 20:53 | 12.08178 | -61.58677 | 8865 ft | 270 kts | 60° |
| 2026-04-20 20:53 | 12.09143 | -61.57011 | 9494 ft | 274 kts | 60° |
| 2026-04-20 20:53 | 12.10115 | -61.55321 | 10122 ft | 277 kts | 60° |
| 2026-04-20 20:53 | 12.11092 | -61.53607 | 10752 ft | 281 kts | 60° |
| 2026-04-20 20:54 | 12.12079 | -61.51857 | 11378 ft | 285 kts | 60° |
| 2026-04-20 20:54 | 12.13070 | -61.50087 | 12007 ft | 289 kts | 60° |
| 2026-04-20 20:54 | 12.14064 | -61.48292 | 12634 ft | 292 kts | 60° |
| 2026-04-20 20:54 | 12.15069 | -61.46442 | 13267 ft | 306 kts | 60° |
| 2026-04-20 20:55 | 12.16099 | -61.44487 | 13897 ft | 324 kts | 61° |
| 2026-04-20 20:55 | 12.17153 | -61.42418 | 14527 ft | 331 kts | 62° |
| 2026-04-20 20:55 | 12.18200 | -61.40300 | 15155 ft | 337 kts | 63° |
| 2026-04-20 20:55 | 12.19250 | -61.38124 | 15784 ft | 344 kts | 63° |
| 2026-04-20 20:56 | 12.20301 | -61.35904 | 16412 ft | 350 kts | 63° |
| 2026-04-20 20:56 | 12.21363 | -61.33645 | 17040 ft | 355 kts | 63° |
| 2026-04-20 20:56 | 12.22436 | -61.31359 | 17667 ft | 359 kts | 63° |
| 2026-04-20 20:56 | 12.23524 | -61.29038 | 18295 ft | 364 kts | 63° |
| 2026-04-20 20:57 | 12.24624 | -61.26690 | 18867 ft | 371 kts | 63° |
| 2026-04-20 20:57 | 12.25762 | -61.24264 | 18987 ft | 382 kts | 63° |
| 2026-04-20 20:57 | 12.26915 | -61.21806 | 19004 ft | 383 kts | 63° |
| 2026-04-20 20:57 | 12.28064 | -61.19356 | 19004 ft | 382 kts | 63° |
| 2026-04-20 20:58 | 12.29213 | -61.16904 | 19005 ft | 383 kts | 63° |
| 2026-04-20 20:58 | 12.30366 | -61.14445 | 18991 ft | 383 kts | 63° |
| 2026-04-20 20:58 | 12.31520 | -61.11984 | 18955 ft | 383 kts | 63° |
| 2026-04-20 20:58 | 12.32673 | -61.09525 | 18942 ft | 383 kts | 63° |
| 2026-04-20 20:59 | 12.33824 | -61.07067 | 18939 ft | 383 kts | 63° |
| 2026-04-20 20:59 | 12.34976 | -61.04607 | 18939 ft | 384 kts | 63° |
| 2026-04-20 20:59 | 12.36129 | -61.02147 | 18939 ft | 384 kts | 63° |
| 2026-04-20 20:59 | 12.37285 | -60.99678 | 18939 ft | 384 kts | 63° |
| 2026-04-20 21:00 | 12.38437 | -60.97219 | 18945 ft | 384 kts | 63° |
| 2026-04-20 21:00 | 12.39590 | -60.94756 | 18947 ft | 384 kts | 63° |
| 2026-04-20 21:00 | 12.40744 | -60.92292 | 18942 ft | 384 kts | 63° |
| 2026-04-20 21:00 | 12.41897 | -60.89827 | 18940 ft | 384 kts | 63° |
| 2026-04-20 21:01 | 12.43052 | -60.87359 | 18940 ft | 384 kts | 63° |
| 2026-04-20 21:01 | 12.44205 | -60.84893 | 18940 ft | 384 kts | 63° |
| 2026-04-20 21:01 | 12.45357 | -60.82428 | 18941 ft | 384 kts | 63° |
| 2026-04-20 21:01 | 12.46496 | -60.79991 | 18941 ft | 384 kts | 63° |
| 2026-04-20 21:02 | 12.47650 | -60.77519 | 18941 ft | 384 kts | 63° |
| 2026-04-20 21:02 | 12.48804 | -60.75048 | 18942 ft | 385 kts | 63° |
| 2026-04-20 21:02 | 12.49960 | -60.72573 | 18942 ft | 385 kts | 63° |
| 2026-04-20 21:02 | 12.51114 | -60.70101 | 18942 ft | 385 kts | 63° |
| 2026-04-20 21:03 | 12.51842 | -60.68541 | 18942 ft | 385 kts | 63° |
| 2026-04-20 21:03 | 12.52997 | -60.66066 | 18942 ft | 385 kts | 63° |